createdAt,value
2019-04-06T10:31:18.101Z,1816
2019-04-06T10:32:17.574Z,1828
2019-04-06T10:33:17.948Z,1600
2019-04-06T10:34:17.556Z,864
2019-04-06T10:35:18.174Z,1912
2019-04-06T10:36:19.034Z,1760
2019-04-06T10:37:18.114Z,1808
2019-04-06T10:38:18.008Z,1820
2019-04-06T10:39:17.613Z,1648
2019-04-06T10:40:17.670Z,1780
2019-04-06T10:41:18.331Z,1844
2019-04-06T10:42:17.663Z,1820
2019-04-06T10:43:19.562Z,1920
2019-04-06T10:44:17.845Z,812
2019-04-06T10:45:18.756Z,716
2019-04-06T10:46:18.099Z,780
2019-04-06T10:50:47.090Z,1464
2019-04-06T10:51:50.347Z,912
2019-04-06T10:52:47.824Z,1924
2019-04-06T10:53:46.985Z,776
2019-04-06T10:54:46.878Z,708
2019-04-06T10:55:47.321Z,1688
2019-04-06T10:56:46.972Z,1836
2019-04-06T10:57:48.978Z,904
2019-04-06T10:58:47.076Z,1864
2019-04-06T10:59:59.487Z,992
2019-04-06T11:00:48.049Z,728
2019-04-06T11:01:47.510Z,728
2019-04-06T11:02:46.876Z,720
2019-04-06T11:03:47.644Z,1400
2019-04-06T11:04:47.671Z,612
2019-04-06T11:05:47.525Z,580
2019-04-06T11:06:47.347Z,572
2019-04-06T11:07:47.001Z,612
2019-04-06T11:08:48.981Z,1520
2019-04-06T11:10:52.679Z,1580
2019-04-06T11:11:06.036Z,640
2019-04-06T11:12:05.494Z,656
2019-04-06T11:13:05.427Z,744
2019-04-06T11:14:07.442Z,616
2019-04-06T11:15:05.273Z,576
2019-04-06T11:16:07.692Z,580
2019-04-06T11:17:05.797Z,564
2019-04-06T11:18:05.090Z,632
2019-04-06T11:19:06.574Z,820
2019-04-06T11:20:05.034Z,704
2019-04-06T11:21:06.496Z,1580
2019-04-06T11:22:05.307Z,1640
2019-04-06T11:23:04.987Z,1652
2019-04-06T11:24:06.492Z,1612
2019-04-06T11:25:07.354Z,1488
2019-04-06T11:26:04.990Z,1520
2019-04-06T11:27:05.160Z,1572
2019-04-06T11:28:07.086Z,1568
2019-04-06T11:29:04.879Z,1608
2019-04-06T11:30:18.496Z,1576
2019-04-06T11:31:06.944Z,1556
2019-04-06T11:32:05.041Z,1556
2019-04-06T11:33:04.874Z,676
2019-04-06T11:34:06.145Z,1548
2019-04-06T11:35:05.676Z,1612
2019-04-06T11:36:05.598Z,852
2019-04-06T11:37:06.572Z,1344
2019-04-06T11:38:05.898Z,524
2019-04-06T11:39:05.436Z,492
2019-04-06T11:40:05.240Z,1512
2019-04-06T11:41:05.143Z,528
2019-04-06T11:42:05.233Z,1488
2019-04-06T11:43:06.004Z,1444
2019-04-06T11:44:05.388Z,1572
2019-04-06T11:45:05.748Z,1548
2019-04-06T11:46:05.698Z,1540
2019-04-06T11:47:05.244Z,1504
2019-04-06T11:48:05.434Z,1492
2019-04-06T11:49:04.889Z,1468
2019-04-06T11:50:05.467Z,1456
2019-04-06T11:51:05.220Z,1460
2019-04-06T11:52:05.430Z,1420
2019-04-06T11:53:05.775Z,1408
2019-04-06T11:54:05.621Z,1436
2019-04-06T11:55:05.401Z,1436
2019-04-06T11:56:06.101Z,1444
2019-04-06T11:57:05.452Z,1448
2019-04-06T11:58:08.706Z,1452
2019-04-06T11:59:05.415Z,1472
2019-04-06T12:00:08.411Z,1488
2019-04-06T12:01:07.113Z,1480
2019-04-06T12:02:06.965Z,1472
2019-04-06T12:03:05.673Z,1488
2019-04-06T12:04:05.384Z,1488
2019-04-06T12:05:05.559Z,1536
2019-04-06T12:06:05.896Z,1604
2019-04-06T12:07:07.119Z,1604
2019-04-06T12:08:05.318Z,1612
2019-04-06T12:09:06.649Z,1592
2019-04-06T12:10:05.703Z,1592
2019-04-06T12:11:05.792Z,1600
2019-04-06T12:12:06.322Z,1596
2019-04-06T12:13:07.455Z,1608
2019-04-06T12:14:05.075Z,1624
2019-04-06T12:15:05.595Z,1632
2019-04-06T12:16:06.215Z,1700
2019-04-06T12:17:05.545Z,1500
2019-04-06T12:18:05.890Z,1396
2019-04-06T12:19:05.113Z,756
2019-04-06T12:20:05.832Z,824
2019-04-06T12:21:05.982Z,704
2019-04-06T12:22:05.160Z,688
2019-04-06T12:23:06.224Z,648
2019-04-06T12:24:07.943Z,648
2019-04-06T12:25:06.318Z,564
2019-04-06T12:26:06.182Z,508
2019-04-06T12:27:05.702Z,484
2019-04-06T12:28:05.490Z,484
2019-04-06T12:29:04.855Z,476
2019-04-06T12:30:05.529Z,464
2019-04-06T12:31:05.636Z,436
2019-04-06T12:32:04.989Z,456
2019-04-06T12:33:07.174Z,448
2019-04-06T12:34:05.384Z,456
2019-04-06T12:35:05.277Z,460
2019-04-06T12:36:06.448Z,492
2019-04-06T12:37:05.361Z,536
2019-04-06T12:38:05.661Z,520
2019-04-06T12:39:05.012Z,500
2019-04-06T12:40:05.503Z,416
2019-04-06T12:41:05.627Z,388
2019-04-06T12:42:05.122Z,372
2019-04-06T12:43:07.095Z,384
2019-04-06T12:44:06.671Z,364
2019-04-06T12:45:05.974Z,380
2019-04-06T12:46:05.647Z,408
2019-04-06T12:47:06.564Z,480
2019-04-06T12:48:04.932Z,524
2019-04-06T12:49:05.999Z,404
2019-04-06T12:50:07.083Z,404
2019-04-06T12:51:06.830Z,408
2019-04-06T12:52:06.663Z,636
2019-04-06T12:53:06.117Z,436
2019-04-06T12:54:06.924Z,404
2019-04-06T12:55:05.804Z,496
2019-04-06T12:56:06.114Z,416
2019-04-06T13:01:23.102Z,1432
2019-04-06T13:01:37.123Z,1416
2019-04-06T13:06:53.489Z,632
2019-04-06T13:07:06.669Z,684
2019-04-06T13:08:06.673Z,596
2019-04-06T13:09:06.659Z,760
2019-04-06T13:10:05.811Z,768
2019-04-06T13:11:05.986Z,616
2019-04-06T13:12:06.420Z,576
2019-04-06T13:13:06.070Z,636
2019-04-06T13:14:06.013Z,1596
2019-04-06T13:15:06.219Z,1536
2019-04-06T13:16:06.393Z,1528
2019-04-06T13:17:07.097Z,1524
2019-04-06T13:18:06.775Z,1516
2019-04-06T13:19:06.426Z,1556
2019-04-06T13:20:06.514Z,1504
2019-04-06T13:21:05.780Z,1476
2019-04-06T13:22:05.894Z,1492
2019-04-06T13:23:06.474Z,912
2019-04-06T13:24:06.453Z,1360
2019-04-06T13:25:06.594Z,1424
2019-04-06T13:26:06.511Z,592
2019-04-06T13:27:06.487Z,672
2019-04-06T13:28:06.421Z,504
2019-04-06T13:29:06.984Z,576
2019-04-06T13:30:07.875Z,556
2019-04-06T13:31:12.090Z,804
2019-04-06T13:32:05.693Z,440
2019-04-06T13:33:07.546Z,412
2019-04-06T13:34:06.226Z,392
2019-04-06T13:35:05.457Z,380
2019-04-06T13:36:06.058Z,376
2019-04-06T13:37:06.463Z,376
2019-04-06T13:38:06.002Z,376
2019-04-06T13:39:06.402Z,388
2019-04-06T13:42:14.503Z,404
2019-04-06T13:42:26.756Z,1280
2019-04-06T13:43:26.543Z,412
2019-04-06T13:44:26.905Z,384
2019-04-06T13:45:26.950Z,392
2019-04-06T13:46:26.603Z,420
2019-04-06T13:47:27.032Z,404
2019-04-06T13:48:27.766Z,416
2019-04-06T13:49:26.601Z,432
2019-04-06T13:50:26.720Z,1172
2019-04-06T13:51:28.889Z,1036
2019-04-06T13:52:26.970Z,1184
2019-04-06T13:53:28.072Z,568
2019-04-06T13:54:26.744Z,1228
2019-04-06T13:55:26.973Z,1200
2019-04-06T13:56:26.406Z,1212
2019-04-06T13:57:26.821Z,1208
2019-04-06T13:58:26.700Z,452
2019-04-06T13:59:26.771Z,712
2019-04-06T14:00:26.725Z,436
2019-04-06T14:01:27.187Z,1176
2019-04-06T14:02:26.950Z,472
2019-04-06T14:03:26.679Z,780
2019-04-06T14:04:26.753Z,1140
2019-04-06T14:05:27.139Z,1200
2019-04-06T14:06:26.748Z,1152
2019-04-06T14:07:26.977Z,1236
2019-04-06T14:08:26.780Z,1192
2019-04-06T14:09:26.770Z,980
2019-04-06T14:10:26.588Z,732
2019-04-06T14:11:27.112Z,1140
2019-04-06T14:12:26.783Z,1176
2019-04-06T14:13:26.897Z,1212
2019-04-06T14:14:32.333Z,1224
2019-04-06T14:15:26.605Z,1220
2019-04-06T14:16:26.625Z,1228
2019-04-06T14:17:27.200Z,1240
2019-04-06T14:22:45.132Z,1228
2019-04-06T14:23:00.052Z,1124
2019-04-06T14:23:59.160Z,1084
2019-04-06T14:25:00.416Z,1008
2019-04-06T14:26:00.074Z,1108
2019-04-06T14:26:58.804Z,1104
2019-04-06T14:28:00.346Z,1020
2019-04-06T14:28:59.575Z,1052
2019-04-06T14:30:00.680Z,1032
2019-04-06T14:31:00.825Z,1028
2019-04-06T14:31:58.999Z,1016
2019-04-06T14:32:58.719Z,1028
2019-04-06T14:33:59.449Z,528
2019-04-06T14:34:59.242Z,424
2019-04-06T14:35:58.691Z,1040
2019-04-06T14:36:59.716Z,1064
2019-04-06T14:37:58.996Z,1076
2019-04-06T14:38:59.445Z,1108
2019-04-06T14:40:00.133Z,1096
2019-04-06T14:40:59.135Z,488
2019-04-06T14:41:59.136Z,512
2019-04-06T14:42:58.976Z,568
2019-04-06T14:44:01.093Z,644
2019-04-06T14:44:59.170Z,468
2019-04-06T14:45:59.150Z,828
2019-04-06T14:46:59.533Z,376
2019-04-06T14:47:59.214Z,544
2019-04-06T14:49:09.849Z,388
2019-04-06T14:49:59.762Z,856
2019-04-06T14:50:58.960Z,860
2019-04-06T14:51:59.041Z,612
2019-04-06T14:52:59.396Z,460
2019-04-06T14:54:00.793Z,940
2019-04-06T14:54:59.893Z,948
2019-04-06T14:55:59.965Z,912
2019-04-06T14:56:59.531Z,888
2019-04-06T14:57:59.433Z,888
2019-04-06T14:58:59.950Z,860
2019-04-06T15:00:00.561Z,828
2019-04-06T15:02:04.259Z,808
2019-04-06T15:02:17.350Z,812
2019-04-06T15:03:18.512Z,816
2019-04-06T15:04:18.148Z,792
2019-04-06T15:05:17.197Z,800
2019-04-06T15:06:17.641Z,764
2019-04-06T15:07:20.496Z,760
2019-04-06T15:08:17.171Z,740
2019-04-06T15:09:17.456Z,748
2019-04-06T15:10:18.704Z,756
2019-04-06T15:11:17.619Z,760
2019-04-06T15:12:17.263Z,776
2019-04-06T15:13:17.765Z,772
2019-04-06T15:14:19.659Z,736
2019-04-06T15:15:17.994Z,756
2019-04-06T15:16:17.249Z,736
2019-04-06T15:17:17.986Z,716
2019-04-06T15:23:57.153Z,656
2019-04-06T15:24:58.963Z,632
2019-04-06T15:25:57.947Z,616
2019-04-06T15:26:57.723Z,416
2019-04-06T15:27:57.383Z,624
2019-04-06T15:29:00.394Z,624
2019-04-06T15:29:57.350Z,608
2019-04-06T15:30:57.494Z,600
2019-04-06T15:32:01.013Z,300
2019-04-06T15:32:57.655Z,372
2019-04-06T15:33:57.392Z,348
2019-04-06T15:34:59.390Z,560
2019-04-06T15:35:58.064Z,576
2019-04-06T15:36:57.258Z,580
2019-04-06T15:37:58.557Z,552
2019-04-06T15:38:57.730Z,540
2019-04-06T15:39:58.602Z,544
2019-04-06T15:40:58.531Z,540
2019-04-06T15:42:05.376Z,548
2019-04-06T15:42:57.198Z,540
2019-04-06T15:43:58.561Z,532
2019-04-06T15:44:57.235Z,520
2019-04-06T15:45:58.414Z,516
2019-04-06T15:47:01.509Z,508
2019-04-06T15:47:58.586Z,508
2019-04-06T15:48:57.492Z,508
2019-04-06T15:49:57.554Z,504
2019-04-06T15:50:57.500Z,496
2019-04-06T15:52:09.581Z,484
2019-04-06T15:52:58.396Z,464
2019-04-06T16:03:56.082Z,428
2019-04-06T16:04:08.931Z,424
2019-04-06T16:05:09.086Z,360
2019-04-06T16:06:08.795Z,344
2019-04-06T16:07:09.221Z,332
2019-04-06T16:08:08.341Z,320
2019-04-06T16:09:08.519Z,308
2019-04-06T16:10:09.080Z,296
2019-04-06T16:11:09.546Z,264
2019-04-06T16:12:10.731Z,252
2019-04-06T16:13:11.217Z,244
2019-04-06T16:14:08.782Z,260
2019-04-06T16:15:08.994Z,264
2019-04-06T16:16:10.326Z,252
2019-04-06T16:17:09.695Z,252
2019-04-06T16:18:09.361Z,244
2019-04-06T16:19:09.705Z,232
2019-04-06T16:20:10.316Z,212
2019-04-06T16:24:40.327Z,196
2019-04-06T16:25:39.225Z,192
2019-04-06T16:26:39.278Z,180
2019-04-06T16:27:40.933Z,176
2019-04-06T16:28:39.882Z,164
2019-04-06T16:29:40.586Z,168
2019-04-06T16:30:40.787Z,160
2019-04-06T16:31:39.693Z,164
2019-04-06T16:32:44.017Z,156
2019-04-06T16:33:41.704Z,152
2019-04-06T16:34:39.914Z,148
2019-04-06T16:35:40.706Z,140
2019-04-06T16:36:40.819Z,136
2019-04-06T16:37:40.466Z,136
2019-04-06T16:38:41.388Z,132
2019-04-06T16:39:42.896Z,124
2019-04-06T16:40:41.395Z,120
2019-04-06T16:41:42.205Z,116
2019-04-06T16:42:41.371Z,116
2019-04-06T16:43:42.655Z,108
2019-04-06T16:44:40.943Z,108
2019-04-06T16:45:41.305Z,104
2019-04-06T16:46:41.875Z,104
2019-04-06T16:47:41.361Z,100
2019-04-06T16:48:41.348Z,100
2019-04-06T16:49:41.158Z,96
2019-04-06T16:50:41.120Z,92
2019-04-06T16:51:43.721Z,96
2019-04-06T16:52:42.400Z,92
2019-04-06T16:53:41.347Z,88
2019-04-06T16:54:42.371Z,88
2019-04-06T16:55:40.976Z,88
2019-04-06T16:56:41.090Z,84
2019-04-06T16:57:43.577Z,84
2019-04-06T16:58:42.268Z,84
2019-04-06T16:59:41.746Z,84
2019-04-06T17:00:41.769Z,84
2019-04-06T17:01:42.357Z,80
2019-04-06T17:02:42.197Z,80
2019-04-06T17:03:41.234Z,80
2019-04-06T17:04:44.211Z,80
2019-04-06T17:05:42.779Z,76
